sensor_id;sensor_type;location;lat;lon;timestamp;temperature;humidity
70593;DHT22;58294;42.988;20.338;2022-11-20T00:02:09;307.50;2304.00
70593;DHT22;58294;42.988;20.338;2022-11-20T00:04:35;307.60;2304.00
70593;DHT22;58294;42.988;20.338;2022-11-20T00:07:01;307.60;2304.00
70593;DHT22;58294;42.988;20.338;2022-11-20T00:09:27;307.70;2304.00
70593;DHT22;58294;42.988;20.338;2022-11-20T00:11:52;307.70;2304.00
70593;DHT22;58294;42.988;20.338;2022-11-20T00:14:19;307.70;2304.00
70593;DHT22;58294;42.988;20.338;2022-11-20T00:16:44;307.70;2304.00
70593;DHT22;58294;42.988;20.338;2022-11-20T00:19:10;307.70;2304.00
70593;DHT22;58294;42.988;20.338;2022-11-20T00:21:36;307.70;2304.00
70593;DHT22;58294;42.988;20.338;2022-11-20T00:24:02;307.70;2304.00
70593;DHT22;58294;42.988;20.338;2022-11-20T00:26:28;307.80;2304.00
70593;DHT22;58294;42.988;20.338;2022-11-20T00:28:56;307.80;2304.00
70593;DHT22;58294;42.988;20.338;2022-11-20T00:31:23;307.80;2304.00
70593;DHT22;58294;42.988;20.338;2022-11-20T00:33:49;307.80;2304.00
70593;DHT22;58294;42.988;20.338;2022-11-20T00:36:17;307.80;2304.00
70593;DHT22;58294;42.988;20.338;2022-11-20T00:38:44;307.80;2304.00
70593;DHT22;58294;42.988;20.338;2022-11-20T00:41:15;307.80;2304.00
70593;DHT22;58294;42.988;20.338;2022-11-20T00:43:41;307.80;2304.00
70593;DHT22;58294;42.988;20.338;2022-11-20T00:46:10;307.80;2304.00
70593;DHT22;58294;42.988;20.338;2022-11-20T00:48:37;307.80;2304.00
70593;DHT22;58294;42.988;20.338;2022-11-20T00:51:03;307.80;2304.00
70593;DHT22;58294;42.988;20.338;2022-11-20T00:53:29;307.80;2304.00
70593;DHT22;58294;42.988;20.338;2022-11-20T00:56:00;307.80;2304.00
70593;DHT22;58294;42.988;20.338;2022-11-20T00:58:34;307.80;2304.00
70593;DHT22;58294;42.988;20.338;2022-11-20T01:03:39;307.70;2304.00
70593;DHT22;58294;42.988;20.338;2022-11-20T01:06:06;307.70;2304.00
70593;DHT22;58294;42.988;20.338;2022-11-20T01:08:34;307.70;2304.00
70593;DHT22;58294;42.988;20.338;2022-11-20T01:11:09;307.70;2304.00
70593;DHT22;58294;42.988;20.338;2022-11-20T01:13:35;307.60;2304.00
70593;DHT22;58294;42.988;20.338;2022-11-20T01:18:31;307.60;2304.00
70593;DHT22;58294;42.988;20.338;2022-11-20T01:21:10;307.60;2304.00
70593;DHT22;58294;42.988;20.338;2022-11-20T01:23:38;307.60;2304.00
70593;DHT22;58294;42.988;20.338;2022-11-20T01:26:07;307.60;2304.00
70593;DHT22;58294;42.988;20.338;2022-11-20T01:28:34;307.60;2304.00
70593;DHT22;58294;42.988;20.338;2022-11-20T01:31:01;307.60;2304.00
70593;DHT22;58294;42.988;20.338;2022-11-20T01:33:27;307.60;2304.00
70593;DHT22;58294;42.988;20.338;2022-11-20T01:35:53;307.60;2304.00
70593;DHT22;58294;42.988;20.338;2022-11-20T01:38:27;307.70;2304.00
70593;DHT22;58294;42.988;20.338;2022-11-20T01:40:54;307.60;2304.00
70593;DHT22;58294;42.988;20.338;2022-11-20T01:43:21;307.60;2304.00
70593;DHT22;58294;42.988;20.338;2022-11-20T01:50:59;307.50;2304.00
70593;DHT22;58294;42.988;20.338;2022-11-20T01:53:30;307.50;2304.00
70593;DHT22;58294;42.988;20.338;2022-11-20T01:56:00;307.40;2304.00
70593;DHT22;58294;42.988;20.338;2022-11-20T01:58:32;307.40;2304.00
70593;DHT22;58294;42.988;20.338;2022-11-20T02:00:59;307.40;2304.00
70593;DHT22;58294;42.988;20.338;2022-11-20T02:03:26;307.40;2304.00
70593;DHT22;58294;42.988;20.338;2022-11-20T02:05:57;307.40;2304.00
70593;DHT22;58294;42.988;20.338;2022-11-20T02:08:28;307.40;2304.00
70593;DHT22;58294;42.988;20.338;2022-11-20T02:10:53;307.40;2304.00
70593;DHT22;58294;42.988;20.338;2022-11-20T02:13:19;307.40;2304.00
70593;DHT22;58294;42.988;20.338;2022-11-20T02:16:04;307.40;2304.00
70593;DHT22;58294;42.988;20.338;2022-11-20T02:18:34;307.40;2304.00
70593;DHT22;58294;42.988;20.338;2022-11-20T02:24:01;307.50;2304.00
70593;DHT22;58294;42.988;20.338;2022-11-20T02:26:29;307.50;2304.00
70593;DHT22;58294;42.988;20.338;2022-11-20T02:28:56;307.50;2304.00
70593;DHT22;58294;42.988;20.338;2022-11-20T02:31:24;307.50;2304.00
70593;DHT22;58294;42.988;20.338;2022-11-20T02:33:55;307.50;2304.00
70593;DHT22;58294;42.988;20.338;2022-11-20T02:36:21;307.50;2304.00
70593;DHT22;58294;42.988;20.338;2022-11-20T02:38:48;307.50;2304.00
70593;DHT22;58294;42.988;20.338;2022-11-20T02:41:15;307.40;2304.00
70593;DHT22;58294;42.988;20.338;2022-11-20T02:43:41;307.40;2304.00
70593;DHT22;58294;42.988;20.338;2022-11-20T02:46:07;307.40;2304.00
70593;DHT22;58294;42.988;20.338;2022-11-20T02:48:33;307.40;2304.00
70593;DHT22;58294;42.988;20.338;2022-11-20T02:50:59;307.40;2304.00
70593;DHT22;58294;42.988;20.338;2022-11-20T02:53:25;307.40;2304.00
70593;DHT22;58294;42.988;20.338;2022-11-20T02:55:51;307.40;2304.00
70593;DHT22;58294;42.988;20.338;2022-11-20T02:58:17;307.40;2304.00
70593;DHT22;58294;42.988;20.338;2022-11-20T03:00:42;307.40;2304.00
70593;DHT22;58294;42.988;20.338;2022-11-20T03:03:08;307.30;2304.00
70593;DHT22;58294;42.988;20.338;2022-11-20T03:05:34;307.30;2304.00
70593;DHT22;58294;42.988;20.338;2022-11-20T03:08:00;307.30;2304.00
70593;DHT22;58294;42.988;20.338;2022-11-20T03:10:26;307.30;2304.00
70593;DHT22;58294;42.988;20.338;2022-11-20T03:12:55;307.30;2304.00
70593;DHT22;58294;42.988;20.338;2022-11-20T03:15:24;307.30;2304.00
70593;DHT22;58294;42.988;20.338;2022-11-20T03:17:53;307.30;2304.00
70593;DHT22;58294;42.988;20.338;2022-11-20T03:20:20;307.30;2304.00
70593;DHT22;58294;42.988;20.338;2022-11-20T03:22:46;307.30;2304.00
70593;DHT22;58294;42.988;20.338;2022-11-20T03:25:11;307.30;2304.00
70593;DHT22;58294;42.988;20.338;2022-11-20T03:27:37;307.30;2304.00
70593;DHT22;58294;42.988;20.338;2022-11-20T03:30:04;307.40;2304.00
70593;DHT22;58294;42.988;20.338;2022-11-20T03:32:31;307.40;2304.00
70593;DHT22;58294;42.988;20.338;2022-11-20T03:34:57;307.40;2304.00
70593;DHT22;58294;42.988;20.338;2022-11-20T03:37:22;307.40;2304.00
70593;DHT22;58294;42.988;20.338;2022-11-20T03:39:48;307.40;2304.00
70593;DHT22;58294;42.988;20.338;2022-11-20T03:42:14;307.40;2304.00
70593;DHT22;58294;42.988;20.338;2022-11-20T03:44:58;307.50;2304.00
70593;DHT22;58294;42.988;20.338;2022-11-20T03:47:24;307.40;2304.00
70593;DHT22;58294;42.988;20.338;2022-11-20T03:49:50;307.40;2304.00
70593;DHT22;58294;42.988;20.338;2022-11-20T03:52:16;307.40;2304.00
70593;DHT22;58294;42.988;20.338;2022-11-20T03:54:41;307.40;2304.00
70593;DHT22;58294;42.988;20.338;2022-11-20T03:57:07;307.40;2304.00
70593;DHT22;58294;42.988;20.338;2022-11-20T03:59:33;307.40;2304.00
70593;DHT22;58294;42.988;20.338;2022-11-20T04:01:59;307.30;2304.00
70593;DHT22;58294;42.988;20.338;2022-11-20T04:04:24;307.30;2304.00
70593;DHT22;58294;42.988;20.338;2022-11-20T04:06:50;307.30;2304.00
70593;DHT22;58294;42.988;20.338;2022-11-20T04:09:16;307.30;2304.00
70593;DHT22;58294;42.988;20.338;2022-11-20T04:11:42;307.30;2304.00
70593;DHT22;58294;42.988;20.338;2022-11-20T04:14:13;307.30;2304.00
70593;DHT22;58294;42.988;20.338;2022-11-20T04:16:40;307.30;2304.00
70593;DHT22;58294;42.988;20.338;2022-11-20T04:19:10;307.30;2304.00
70593;DHT22;58294;42.988;20.338;2022-11-20T04:21:37;307.30;2304.00
70593;DHT22;58294;42.988;20.338;2022-11-20T04:24:03;307.30;2304.00
70593;DHT22;58294;42.988;20.338;2022-11-20T04:26:29;307.30;2304.00
70593;DHT22;58294;42.988;20.338;2022-11-20T04:28:56;307.30;2304.00
70593;DHT22;58294;42.988;20.338;2022-11-20T04:31:25;307.30;2304.00
70593;DHT22;58294;42.988;20.338;2022-11-20T04:33:51;307.30;2304.00
70593;DHT22;58294;42.988;20.338;2022-11-20T04:36:24;307.20;2304.00
70593;DHT22;58294;42.988;20.338;2022-11-20T04:38:55;307.20;2304.00
70593;DHT22;58294;42.988;20.338;2022-11-20T04:41:22;307.20;2304.00
70593;DHT22;58294;42.988;20.338;2022-11-20T04:43:50;307.20;2304.00
70593;DHT22;58294;42.988;20.338;2022-11-20T04:46:18;307.20;2304.00
70593;DHT22;58294;42.988;20.338;2022-11-20T04:48:45;307.20;2304.00
70593;DHT22;58294;42.988;20.338;2022-11-20T04:51:11;282.50;2278.40
70593;DHT22;58294;42.988;20.338;2022-11-20T04:53:38;282.50;2278.40
70593;DHT22;58294;42.988;20.338;2022-11-20T04:56:07;282.50;2278.40
70593;DHT22;58294;42.988;20.338;2022-11-20T04:58:33;282.50;2278.40
70593;DHT22;58294;42.988;20.338;2022-11-20T05:01:07;282.50;2278.40
70593;DHT22;58294;42.988;20.338;2022-11-20T05:03:34;282.40;2278.40
70593;DHT22;58294;42.988;20.338;2022-11-20T05:06:02;282.40;2278.40
70593;DHT22;58294;42.988;20.338;2022-11-20T05:08:29;282.40;2278.40
70593;DHT22;58294;42.988;20.338;2022-11-20T05:11:03;282.40;2278.40
70593;DHT22;58294;42.988;20.338;2022-11-20T05:13:29;282.40;2278.40
70593;DHT22;58294;42.988;20.338;2022-11-20T05:15:55;282.40;2278.40
70593;DHT22;58294;42.988;20.338;2022-11-20T05:18:21;282.40;2278.40
70593;DHT22;58294;42.988;20.338;2022-11-20T05:20:54;282.40;2278.40
70593;DHT22;58294;42.988;20.338;2022-11-20T05:23:20;282.40;2278.40
70593;DHT22;58294;42.988;20.338;2022-11-20T05:25:46;282.40;2278.40
70593;DHT22;58294;42.988;20.338;2022-11-20T05:28:12;282.40;2278.40
70593;DHT22;58294;42.988;20.338;2022-11-20T05:30:38;282.40;2278.40
70593;DHT22;58294;42.988;20.338;2022-11-20T05:33:03;282.50;2278.40
70593;DHT22;58294;42.988;20.338;2022-11-20T05:35:29;282.50;2278.40
70593;DHT22;58294;42.988;20.338;2022-11-20T05:37:55;282.50;2278.40
70593;DHT22;58294;42.988;20.338;2022-11-20T05:40:21;282.50;2278.40
70593;DHT22;58294;42.988;20.338;2022-11-20T05:42:46;282.50;2278.40
70593;DHT22;58294;42.988;20.338;2022-11-20T05:45:12;282.40;2278.40
70593;DHT22;58294;42.988;20.338;2022-11-20T05:47:38;282.40;2278.40
70593;DHT22;58294;42.988;20.338;2022-11-20T05:50:04;282.40;2278.40
70593;DHT22;58294;42.988;20.338;2022-11-20T05:52:30;282.40;2278.40
70593;DHT22;58294;42.988;20.338;2022-11-20T05:54:56;282.40;2278.40
70593;DHT22;58294;42.988;20.338;2022-11-20T05:57:22;282.50;2278.40
70593;DHT22;58294;42.988;20.338;2022-11-20T05:59:48;282.40;2278.40
70593;DHT22;58294;42.988;20.338;2022-11-20T06:02:14;282.40;2278.40
70593;DHT22;58294;42.988;20.338;2022-11-20T06:04:40;282.40;2278.40
70593;DHT22;58294;42.988;20.338;2022-11-20T06:07:06;282.40;2278.40
70593;DHT22;58294;42.988;20.338;2022-11-20T06:09:32;282.30;2278.40
70593;DHT22;58294;42.988;20.338;2022-11-20T06:11:58;282.30;2278.40
70593;DHT22;58294;42.988;20.338;2022-11-20T06:14:23;282.30;2278.40
70593;DHT22;58294;42.988;20.338;2022-11-20T06:16:49;282.40;2278.40
70593;DHT22;58294;42.988;20.338;2022-11-20T06:19:15;282.30;2278.40
70593;DHT22;58294;42.988;20.338;2022-11-20T06:21:41;282.30;2278.40
70593;DHT22;58294;42.988;20.338;2022-11-20T06:24:09;282.30;2278.40
70593;DHT22;58294;42.988;20.338;2022-11-20T06:26:35;282.30;2278.40
70593;DHT22;58294;42.988;20.338;2022-11-20T06:29:01;282.30;2278.40
70593;DHT22;58294;42.988;20.338;2022-11-20T06:31:26;282.30;2278.40
70593;DHT22;58294;42.988;20.338;2022-11-20T06:33:52;282.30;2278.40
70593;DHT22;58294;42.988;20.338;2022-11-20T06:36:21;282.30;2278.40
70593;DHT22;58294;42.988;20.338;2022-11-20T06:38:47;282.30;2278.40
70593;DHT22;58294;42.988;20.338;2022-11-20T06:41:17;282.40;2278.40
70593;DHT22;58294;42.988;20.338;2022-11-20T06:43:43;282.40;2278.40
70593;DHT22;58294;42.988;20.338;2022-11-20T06:46:11;282.40;2278.40
70593;DHT22;58294;42.988;20.338;2022-11-20T06:48:37;282.50;2278.40
70593;DHT22;58294;42.988;20.338;2022-11-20T06:51:04;282.50;2278.40
70593;DHT22;58294;42.988;20.338;2022-11-20T06:53:30;282.50;2278.40
70593;DHT22;58294;42.988;20.338;2022-11-20T06:55:57;282.50;2278.40
70593;DHT22;58294;42.988;20.338;2022-11-20T06:58:30;282.50;2278.40
70593;DHT22;58294;42.988;20.338;2022-11-20T07:01:00;282.50;2278.40
70593;DHT22;58294;42.988;20.338;2022-11-20T07:03:26;282.50;2278.40
70593;DHT22;58294;42.988;20.338;2022-11-20T07:05:55;282.50;2278.40
70593;DHT22;58294;42.988;20.338;2022-11-20T07:08:21;282.50;2278.40
70593;DHT22;58294;42.988;20.338;2022-11-20T07:10:47;307.20;2304.00
70593;DHT22;58294;42.988;20.338;2022-11-20T07:13:13;307.20;2304.00
70593;DHT22;58294;42.988;20.338;2022-11-20T07:15:39;307.20;2304.00
70593;DHT22;58294;42.988;20.338;2022-11-20T07:18:05;282.50;2278.40
70593;DHT22;58294;42.988;20.338;2022-11-20T07:20:31;282.50;2278.40
70593;DHT22;58294;42.988;20.338;2022-11-20T07:22:57;282.50;2278.40
70593;DHT22;58294;42.988;20.338;2022-11-20T07:25:24;307.20;2304.00
70593;DHT22;58294;42.988;20.338;2022-11-20T07:27:51;307.20;2304.00
70593;DHT22;58294;42.988;20.338;2022-11-20T07:30:17;307.20;2304.00
70593;DHT22;58294;42.988;20.338;2022-11-20T07:32:46;307.20;2304.00
70593;DHT22;58294;42.988;20.338;2022-11-20T07:35:12;307.20;2304.00
70593;DHT22;58294;42.988;20.338;2022-11-20T07:37:38;307.20;2304.00
70593;DHT22;58294;42.988;20.338;2022-11-20T07:40:04;307.20;2304.00
70593;DHT22;58294;42.988;20.338;2022-11-20T07:42:30;282.50;2278.40
70593;DHT22;58294;42.988;20.338;2022-11-20T07:44:56;282.50;2278.40
70593;DHT22;58294;42.988;20.338;2022-11-20T07:47:21;282.50;2278.40
70593;DHT22;58294;42.988;20.338;2022-11-20T07:49:50;282.40;2278.40
70593;DHT22;58294;42.988;20.338;2022-11-20T07:52:16;282.40;2278.40
70593;DHT22;58294;42.988;20.338;2022-11-20T07:54:41;282.40;2278.40
70593;DHT22;58294;42.988;20.338;2022-11-20T07:57:07;282.40;2278.40
70593;DHT22;58294;42.988;20.338;2022-11-20T07:59:33;282.40;2278.40
70593;DHT22;58294;42.988;20.338;2022-11-20T08:01:59;282.50;2278.40
70593;DHT22;58294;42.988;20.338;2022-11-20T08:04:24;282.40;2278.40
70593;DHT22;58294;42.988;20.338;2022-11-20T08:06:52;282.40;2278.40
70593;DHT22;58294;42.988;20.338;2022-11-20T08:09:18;282.40;2278.40
70593;DHT22;58294;42.988;20.338;2022-11-20T08:11:43;282.40;2278.40
70593;DHT22;58294;42.988;20.338;2022-11-20T08:14:27;282.40;2278.40
70593;DHT22;58294;42.988;20.338;2022-11-20T08:16:53;282.40;2278.40
70593;DHT22;58294;42.988;20.338;2022-11-20T08:19:19;282.40;2278.40
70593;DHT22;58294;42.988;20.338;2022-11-20T08:21:45;282.40;2278.40
70593;DHT22;58294;42.988;20.338;2022-11-20T08:24:11;282.40;2278.40
70593;DHT22;58294;42.988;20.338;2022-11-20T08:26:38;282.40;2278.40
70593;DHT22;58294;42.988;20.338;2022-11-20T08:29:05;282.40;2278.40
70593;DHT22;58294;42.988;20.338;2022-11-20T08:31:31;282.30;2278.40
70593;DHT22;58294;42.988;20.338;2022-11-20T08:33:57;282.30;2278.40
70593;DHT22;58294;42.988;20.338;2022-11-20T08:36:24;282.30;2278.40
70593;DHT22;58294;42.988;20.338;2022-11-20T08:38:52;282.30;2278.40
70593;DHT22;58294;42.988;20.338;2022-11-20T08:41:18;282.30;2278.40
70593;DHT22;58294;42.988;20.338;2022-11-20T08:44:01;282.30;2278.40
70593;DHT22;58294;42.988;20.338;2022-11-20T08:46:32;282.40;2278.40
70593;DHT22;58294;42.988;20.338;2022-11-20T08:48:59;282.40;2278.40
70593;DHT22;58294;42.988;20.338;2022-11-20T08:51:25;282.30;2278.40
70593;DHT22;58294;42.988;20.338;2022-11-20T08:53:51;282.30;2278.40
70593;DHT22;58294;42.988;20.338;2022-11-20T08:56:17;282.30;2278.40
70593;DHT22;58294;42.988;20.338;2022-11-20T08:58:43;282.30;2278.40
70593;DHT22;58294;42.988;20.338;2022-11-20T09:01:09;282.30;2278.40
70593;DHT22;58294;42.988;20.338;2022-11-20T09:03:35;282.40;2278.40
70593;DHT22;58294;42.988;20.338;2022-11-20T09:06:03;282.40;2278.40
70593;DHT22;58294;42.988;20.338;2022-11-20T09:08:30;282.40;2278.40
70593;DHT22;58294;42.988;20.338;2022-11-20T09:10:57;282.50;2278.40
70593;DHT22;58294;42.988;20.338;2022-11-20T09:13:24;282.40;2278.40
70593;DHT22;58294;42.988;20.338;2022-11-20T09:16:02;282.50;2278.40
70593;DHT22;58294;42.988;20.338;2022-11-20T09:18:29;282.40;2278.40
70593;DHT22;58294;42.988;20.338;2022-11-20T09:20:58;282.40;2278.40
70593;DHT22;58294;42.988;20.338;2022-11-20T09:23:24;282.40;2278.40
70593;DHT22;58294;42.988;20.338;2022-11-20T09:25:50;282.50;2278.40
70593;DHT22;58294;42.988;20.338;2022-11-20T09:28:16;282.50;2278.40
70593;DHT22;58294;42.988;20.338;2022-11-20T09:30:44;307.20;2304.00
70593;DHT22;58294;42.988;20.338;2022-11-20T09:33:10;282.50;2278.40
70593;DHT22;58294;42.988;20.338;2022-11-20T09:35:36;282.50;2278.40
70593;DHT22;58294;42.988;20.338;2022-11-20T09:38:06;282.50;2278.40
70593;DHT22;58294;42.988;20.338;2022-11-20T09:40:32;307.20;2304.00
70593;DHT22;58294;42.988;20.338;2022-11-20T09:50:47;307.20;2304.00
70593;DHT22;58294;42.988;20.338;2022-11-20T09:53:41;282.40;2278.40
70593;DHT22;58294;42.988;20.338;2022-11-20T09:56:10;282.40;2278.40
70593;DHT22;58294;42.988;20.338;2022-11-20T09:59:02;282.30;2278.40
70593;DHT22;58294;42.988;20.338;2022-11-20T10:01:33;282.30;2278.40
70593;DHT22;58294;42.988;20.338;2022-11-20T10:04:15;282.30;2278.40
70593;DHT22;58294;42.988;20.338;2022-11-20T10:06:52;282.30;2278.40
70593;DHT22;58294;42.988;20.338;2022-11-20T10:09:40;282.20;2278.40
70593;DHT22;58294;42.988;20.338;2022-11-20T10:18:06;282.20;2278.40
70593;DHT22;58294;42.988;20.338;2022-11-20T10:20:48;282.10;2278.40
70593;DHT22;58294;42.988;20.338;2022-11-20T10:23:44;282.10;2278.40
70593;DHT22;58294;42.988;20.338;2022-11-20T10:26:21;282.10;2278.40
70593;DHT22;58294;42.988;20.338;2022-11-20T10:32:00;282.10;2278.40
70593;DHT22;58294;42.988;20.338;2022-11-20T10:35:00;282.20;2278.40
70593;DHT22;58294;42.988;20.338;2022-11-20T10:37:27;282.20;2278.40
70593;DHT22;58294;42.988;20.338;2022-11-20T10:46:00;282.20;2278.40
70593;DHT22;58294;42.988;20.338;2022-11-20T10:48:28;282.30;2278.40
70593;DHT22;58294;42.988;20.338;2022-11-20T10:51:18;282.30;2278.40
70593;DHT22;58294;42.988;20.338;2022-11-20T10:53:58;282.30;2278.40
70593;DHT22;58294;42.988;20.338;2022-11-20T10:56:42;282.30;2278.40
70593;DHT22;58294;42.988;20.338;2022-11-20T11:01:43;282.40;2278.40
70593;DHT22;58294;42.988;20.338;2022-11-20T11:04:26;282.40;2278.40
70593;DHT22;58294;42.988;20.338;2022-11-20T11:07:21;282.50;2278.40
70593;DHT22;58294;42.988;20.338;2022-11-20T11:09:53;282.50;2278.40
70593;DHT22;58294;42.988;20.338;2022-11-20T11:12:21;307.20;2304.00
70593;DHT22;58294;42.988;20.338;2022-11-20T11:14:53;307.20;2304.00
70593;DHT22;58294;42.988;20.338;2022-11-20T11:17:31;307.30;2304.00
70593;DHT22;58294;42.988;20.338;2022-11-20T11:20:17;307.30;2304.00
70593;DHT22;58294;42.988;20.338;2022-11-20T11:25:40;307.40;2304.00
70593;DHT22;58294;42.988;20.338;2022-11-20T11:28:26;307.50;2304.00
70593;DHT22;58294;42.988;20.338;2022-11-20T11:30:54;307.40;2304.00
70593;DHT22;58294;42.988;20.338;2022-11-20T11:33:30;307.40;2304.00
70593;DHT22;58294;42.988;20.338;2022-11-20T11:36:21;307.40;2304.00
70593;DHT22;58294;42.988;20.338;2022-11-20T11:38:51;307.40;2304.00
70593;DHT22;58294;42.988;20.338;2022-11-20T11:41:22;307.40;2304.00
70593;DHT22;58294;42.988;20.338;2022-11-20T11:44:01;307.40;2304.00
70593;DHT22;58294;42.988;20.338;2022-11-20T11:46:54;307.40;2304.00
70593;DHT22;58294;42.988;20.338;2022-11-20T11:49:20;307.40;2304.00
70593;DHT22;58294;42.988;20.338;2022-11-20T11:52:03;307.40;2304.00
70593;DHT22;58294;42.988;20.338;2022-11-20T11:57:55;307.40;2304.00
70593;DHT22;58294;42.988;20.338;2022-11-20T12:10:59;307.20;2304.00
70593;DHT22;58294;42.988;20.338;2022-11-20T12:13:40;307.20;2304.00
70593;DHT22;58294;42.988;20.338;2022-11-20T12:16:13;307.20;2304.00
70593;DHT22;58294;42.988;20.338;2022-11-20T12:18:40;307.20;2304.00
70593;DHT22;58294;42.988;20.338;2022-11-20T12:21:28;307.20;2304.00
70593;DHT22;58294;42.988;20.338;2022-11-20T12:24:16;307.20;2304.00
70593;DHT22;58294;42.988;20.338;2022-11-20T12:39:58;282.50;2278.40
70593;DHT22;58294;42.988;20.338;2022-11-20T12:45:41;282.30;2278.40
70593;DHT22;58294;42.988;20.338;2022-11-20T12:51:55;282.10;2278.40
70593;DHT22;58294;42.988;20.338;2022-11-20T12:57:32;282.10;2278.40
70593;DHT22;58294;42.988;20.338;2022-11-20T13:03:00;282.00;2278.40
70593;DHT22;58294;42.988;20.338;2022-11-20T13:08:21;282.00;2278.40
70593;DHT22;58294;42.988;20.338;2022-11-20T13:14:19;282.10;2278.40
70593;DHT22;58294;42.988;20.338;2022-11-20T13:19:21;282.10;2278.40
70593;DHT22;58294;42.988;20.338;2022-11-20T13:21:48;282.10;2278.40
70593;DHT22;58294;42.988;20.338;2022-11-20T13:27:03;282.20;2278.40
70593;DHT22;58294;42.988;20.338;2022-11-20T13:29:30;282.20;2278.40
70593;DHT22;58294;42.988;20.338;2022-11-20T13:32:05;282.20;2278.40
70593;DHT22;58294;42.988;20.338;2022-11-20T13:34:32;282.20;2278.40
70593;DHT22;58294;42.988;20.338;2022-11-20T13:37:00;282.30;2278.40
70593;DHT22;58294;42.988;20.338;2022-11-20T13:39:33;282.30;2278.40
70593;DHT22;58294;42.988;20.338;2022-11-20T13:44:48;282.30;2278.40
70593;DHT22;58294;42.988;20.338;2022-11-20T13:47:27;282.30;2278.40
70593;DHT22;58294;42.988;20.338;2022-11-20T13:49:57;282.30;2278.40
70593;DHT22;58294;42.988;20.338;2022-11-20T14:00:50;282.30;2278.40
70593;DHT22;58294;42.988;20.338;2022-11-20T14:03:23;282.30;2278.40
70593;DHT22;58294;42.988;20.338;2022-11-20T14:06:02;282.30;2278.40
70593;DHT22;58294;42.988;20.338;2022-11-20T14:08:39;282.30;2278.40
70593;DHT22;58294;42.988;20.338;2022-11-20T14:11:16;282.20;2278.40
70593;DHT22;58294;42.988;20.338;2022-11-20T14:14:18;282.20;2278.40
70593;DHT22;58294;42.988;20.338;2022-11-20T14:16:45;282.20;2278.40
70593;DHT22;58294;42.988;20.338;2022-11-20T14:21:46;282.10;2278.40
70593;DHT22;58294;42.988;20.338;2022-11-20T14:24:13;282.00;2278.40
70593;DHT22;58294;42.988;20.338;2022-11-20T14:26:44;282.00;2278.40
70593;DHT22;58294;42.988;20.338;2022-11-20T14:29:22;282.00;2278.40
70593;DHT22;58294;42.988;20.338;2022-11-20T14:31:52;281.90;2278.40
70593;DHT22;58294;42.988;20.338;2022-11-20T14:34:23;281.90;2278.40
70593;DHT22;58294;42.988;20.338;2022-11-20T14:36:53;281.80;2278.40
70593;DHT22;58294;42.988;20.338;2022-11-20T14:39:25;281.80;2278.40
70593;DHT22;58294;42.988;20.338;2022-11-20T14:41:52;281.80;2278.40
70593;DHT22;58294;42.988;20.338;2022-11-20T14:44:23;281.80;2278.40
70593;DHT22;58294;42.988;20.338;2022-11-20T14:46:51;281.80;2278.40
70593;DHT22;58294;42.988;20.338;2022-11-20T14:49:18;281.80;2278.40
70593;DHT22;58294;42.988;20.338;2022-11-20T14:51:44;281.80;2278.40
70593;DHT22;58294;42.988;20.338;2022-11-20T14:54:19;281.80;2278.40
70593;DHT22;58294;42.988;20.338;2022-11-20T14:57:02;281.80;2278.40
70593;DHT22;58294;42.988;20.338;2022-11-20T14:59:31;281.80;2278.40
70593;DHT22;58294;42.988;20.338;2022-11-20T15:02:05;281.70;2278.40
70593;DHT22;58294;42.988;20.338;2022-11-20T15:04:31;281.70;2278.40
70593;DHT22;58294;42.988;20.338;2022-11-20T15:07:00;281.60;2278.40
70593;DHT22;58294;42.988;20.338;2022-11-20T15:09:26;281.60;2278.40
70593;DHT22;58294;42.988;20.338;2022-11-20T15:11:58;281.60;2278.40
70593;DHT22;58294;42.988;20.338;2022-11-20T15:14:25;281.60;2278.40
70593;DHT22;58294;42.988;20.338;2022-11-20T15:16:52;256.90;2252.80
70593;DHT22;58294;42.988;20.338;2022-11-20T15:19:23;256.90;2252.80
70593;DHT22;58294;42.988;20.338;2022-11-20T15:21:49;256.90;2252.80
70593;DHT22;58294;42.988;20.338;2022-11-20T15:24:15;256.90;2252.80
70593;DHT22;58294;42.988;20.338;2022-11-20T15:26:42;256.80;2252.80
70593;DHT22;58294;42.988;20.338;2022-11-20T15:29:15;256.80;2252.80
70593;DHT22;58294;42.988;20.338;2022-11-20T15:31:45;256.70;2252.80
70593;DHT22;58294;42.988;20.338;2022-11-20T15:34:11;256.70;2252.80
70593;DHT22;58294;42.988;20.338;2022-11-20T15:36:40;256.70;2252.80
70593;DHT22;58294;42.988;20.338;2022-11-20T15:39:07;256.70;2252.80
70593;DHT22;58294;42.988;20.338;2022-11-20T15:41:34;256.60;2252.80
70593;DHT22;58294;42.988;20.338;2022-11-20T15:44:00;256.60;2252.80
70593;DHT22;58294;42.988;20.338;2022-11-20T15:46:27;256.60;2252.80
70593;DHT22;58294;42.988;20.338;2022-11-20T15:48:57;256.70;2252.80
70593;DHT22;58294;42.988;20.338;2022-11-20T15:51:29;256.60;2252.80
70593;DHT22;58294;42.988;20.338;2022-11-20T15:53:55;256.60;2252.80
70593;DHT22;58294;42.988;20.338;2022-11-20T15:56:22;256.60;2252.80
70593;DHT22;58294;42.988;20.338;2022-11-20T15:58:48;256.60;2252.80
70593;DHT22;58294;42.988;20.338;2022-11-20T16:01:16;256.70;2252.80
70593;DHT22;58294;42.988;20.338;2022-11-20T16:03:42;256.60;2252.80
70593;DHT22;58294;42.988;20.338;2022-11-20T16:06:08;256.60;2252.80
70593;DHT22;58294;42.988;20.338;2022-11-20T16:08:34;256.60;2252.80
70593;DHT22;58294;42.988;20.338;2022-11-20T16:11:00;256.60;2252.80
70593;DHT22;58294;42.988;20.338;2022-11-20T16:13:26;256.60;2252.80
70593;DHT22;58294;42.988;20.338;2022-11-20T16:16:23;256.60;2252.80
70593;DHT22;58294;42.988;20.338;2022-11-20T16:18:50;256.60;2252.80
70593;DHT22;58294;42.988;20.338;2022-11-20T16:21:16;256.60;2252.80
70593;DHT22;58294;42.988;20.338;2022-11-20T16:23:42;256.60;2252.80
70593;DHT22;58294;42.988;20.338;2022-11-20T16:26:15;256.60;2252.80
70593;DHT22;58294;42.988;20.338;2022-11-20T16:28:42;256.60;2252.80
70593;DHT22;58294;42.988;20.338;2022-11-20T16:31:13;256.60;2252.80
70593;DHT22;58294;42.988;20.338;2022-11-20T16:33:39;256.60;2252.80
70593;DHT22;58294;42.988;20.338;2022-11-20T16:36:13;256.60;2252.80